createdAt,value
2023-05-04T00:00:25.554Z,42.16
2023-05-04T00:00:58.282Z,42.49
2023-05-04T00:01:33.340Z,42.39
2023-05-04T00:02:05.669Z,42.10
2023-05-04T00:02:40.654Z,42.02
2023-05-04T00:03:13.206Z,42.52
2023-05-04T00:03:46.011Z,42.12
2023-05-04T00:04:21.239Z,42.53
2023-05-04T00:04:54.277Z,42.28
2023-05-04T00:05:26.934Z,42.43
2023-05-04T00:06:04.540Z,42.30
2023-05-04T00:06:36.875Z,42.33
2023-05-04T00:07:09.258Z,42.28
2023-05-04T00:07:41.883Z,42.33
2023-05-04T00:08:16.812Z,42.16
2023-05-04T00:08:49.140Z,41.99
2023-05-04T00:09:21.538Z,42.02
2023-05-04T00:09:56.498Z,42.50
2023-05-04T00:10:28.856Z,42.33
2023-05-04T00:11:01.223Z,42.24
2023-05-04T00:11:36.217Z,42.33
2023-05-04T00:12:08.646Z,42.42
2023-05-04T00:12:41.660Z,42.52
2023-05-04T00:13:16.934Z,42.04
2023-05-04T00:13:49.282Z,42.52
2023-05-04T00:14:21.627Z,42.30
2023-05-04T00:14:56.561Z,42.32
2023-05-04T00:15:30.542Z,42.07
2023-05-04T00:16:03.141Z,42.05
2023-05-04T00:16:38.284Z,42.18
2023-05-04T00:17:11.329Z,42.19
2023-05-04T00:17:43.703Z,42.19
2023-05-04T00:18:18.721Z,42.12
2023-05-04T00:18:51.072Z,42.35
2023-05-04T00:19:23.483Z,42.46
2023-05-04T00:19:55.844Z,42.54
2023-05-04T00:20:30.773Z,42.44
2023-05-04T00:21:05.779Z,42.33
2023-05-04T00:21:38.149Z,42.13
2023-05-04T00:22:13.120Z,42.50
2023-05-04T00:22:45.455Z,42.45
2023-05-04T00:23:17.857Z,42.45
2023-05-04T00:23:52.808Z,42.52
2023-05-04T00:24:25.142Z,42.21
2023-05-04T00:24:57.482Z,42.54
2023-05-04T00:25:32.601Z,42.25
2023-05-04T00:26:05.087Z,42.31
2023-05-04T00:26:37.494Z,42.50
2023-05-04T00:27:13.161Z,42.23
2023-05-04T00:27:45.573Z,42.00
2023-05-04T00:28:17.935Z,42.21
2023-05-04T00:28:50.381Z,42.29
2023-05-04T00:29:25.355Z,42.30
2023-05-04T00:29:57.687Z,42.26
2023-05-04T00:30:30.076Z,42.24
2023-05-04T00:31:05.302Z,42.07
2023-05-04T00:31:37.752Z,42.27
2023-05-04T00:32:10.421Z,42.31
2023-05-04T00:32:45.442Z,42.05
2023-05-04T00:33:18.067Z,42.53
2023-05-04T00:33:50.650Z,42.09
2023-05-04T00:34:25.631Z,42.17
2023-05-04T00:34:58.055Z,42.50
2023-05-04T00:35:31.888Z,42.04
2023-05-04T00:36:09.988Z,42.09
2023-05-04T00:36:42.914Z,42.12
2023-05-04T00:37:15.306Z,42.29
2023-05-04T00:37:50.292Z,42.49
2023-05-04T00:38:22.638Z,42.09
2023-05-04T00:38:55.737Z,42.04
2023-05-04T00:39:31.212Z,42.45
2023-05-04T00:40:03.998Z,42.45
2023-05-04T00:40:36.764Z,42.09
2023-05-04T00:41:11.789Z,42.07
2023-05-04T00:41:44.757Z,42.50
2023-05-04T00:42:19.719Z,42.12
2023-05-04T00:42:52.088Z,42.06
2023-05-04T00:43:24.446Z,42.54
2023-05-04T00:43:59.965Z,42.17
2023-05-04T00:44:34.758Z,42.31
2023-05-04T00:45:09.115Z,42.53
2023-05-04T00:45:44.253Z,42.60
2023-05-04T00:46:16.767Z,42.40
2023-05-04T00:46:49.155Z,42.55
2023-05-04T00:47:24.728Z,42.62
2023-05-04T00:47:57.493Z,42.15
2023-05-04T00:48:30.054Z,42.17
2023-05-04T00:49:05.132Z,42.12
2023-05-04T00:49:37.544Z,42.35
2023-05-04T00:50:11.821Z,42.58
2023-05-04T00:50:47.052Z,42.33
2023-05-04T00:51:24.257Z,42.21
2023-05-04T00:51:57.610Z,42.28
2023-05-04T00:52:32.749Z,42.25
2023-05-04T00:53:08.914Z,42.55
2023-05-04T00:53:41.822Z,42.33
2023-05-04T00:54:17.982Z,42.08
2023-05-04T00:54:50.357Z,42.38
2023-05-04T00:55:22.792Z,42.51
2023-05-04T00:55:57.821Z,42.55
2023-05-04T00:56:30.564Z,42.32
2023-05-04T00:57:03.799Z,42.29
2023-05-04T00:57:38.742Z,42.07
2023-05-04T00:58:11.112Z,42.27
2023-05-04T00:58:43.676Z,42.27
2023-05-04T00:59:18.620Z,42.50
2023-05-04T00:59:50.959Z,42.44
2023-05-04T01:00:23.555Z,42.41
2023-05-04T01:00:58.570Z,42.56
2023-05-04T01:01:31.203Z,42.50
2023-05-04T01:02:03.616Z,42.23
2023-05-04T01:02:38.601Z,42.35
2023-05-04T01:03:11.282Z,42.41
2023-05-04T01:03:43.789Z,42.03
2023-05-04T01:04:19.022Z,42.38
2023-05-04T01:04:51.405Z,42.00
2023-05-04T01:05:27.363Z,42.17
2023-05-04T01:06:09.204Z,42.17
2023-05-04T01:06:48.730Z,42.34
2023-05-04T01:07:29.909Z,42.18
2023-05-04T01:08:05.382Z,42.17
2023-05-04T01:08:41.877Z,42.07
2023-05-04T01:09:24.101Z,42.12
2023-05-04T01:10:02.617Z,42.20
2023-05-04T01:10:40.850Z,42.17
2023-05-04T01:11:21.981Z,41.94
2023-05-04T01:11:59.419Z,41.92
2023-05-04T01:12:37.090Z,42.08
2023-05-04T01:13:14.764Z,41.90
2023-05-04T01:13:48.310Z,42.15
2023-05-04T01:14:21.701Z,42.13
2023-05-04T01:14:57.850Z,41.92
2023-05-04T01:15:30.597Z,41.90
2023-05-04T01:16:03.261Z,42.00
2023-05-04T01:16:35.683Z,42.36
2023-05-04T01:17:11.262Z,42.36
2023-05-04T01:17:44.295Z,42.32
2023-05-04T01:18:16.847Z,42.20
2023-05-04T01:18:52.002Z,42.03
2023-05-04T01:19:24.374Z,41.77
2023-05-04T01:19:56.722Z,42.09
2023-05-04T01:20:34.398Z,42.12
2023-05-04T01:21:07.982Z,42.29
2023-05-04T01:21:43.020Z,42.00
2023-05-04T01:22:17.969Z,41.95
2023-05-04T01:22:50.414Z,42.09
2023-05-04T01:23:26.492Z,41.99
2023-05-04T01:24:01.722Z,42.14
2023-05-04T01:24:34.220Z,42.19
2023-05-04T01:25:08.251Z,41.75
2023-05-04T01:25:47.608Z,41.92
2023-05-04T01:26:25.748Z,42.16
2023-05-04T01:27:03.952Z,42.36
2023-05-04T01:27:43.652Z,42.19
2023-05-04T01:28:20.211Z,42.14
2023-05-04T01:28:57.480Z,42.08
2023-05-04T01:29:36.292Z,42.21
2023-05-04T01:30:13.734Z,42.12
2023-05-04T01:30:49.936Z,42.37
2023-05-04T01:31:26.465Z,42.01
2023-05-04T01:31:59.969Z,42.02
2023-05-04T01:32:33.296Z,42.39
2023-05-04T01:33:08.714Z,42.44
2023-05-04T01:33:43.912Z,42.19
2023-05-04T01:34:17.083Z,42.21
2023-05-04T01:34:52.234Z,42.41
2023-05-04T01:35:24.657Z,42.20
2023-05-04T01:35:57.198Z,42.34
2023-05-04T01:36:34.062Z,42.22
2023-05-04T01:37:09.280Z,42.06
2023-05-04T01:37:42.127Z,41.97
2023-05-04T01:38:17.134Z,42.26
2023-05-04T01:38:49.777Z,42.46
2023-05-04T01:39:22.190Z,42.39
2023-05-04T01:39:54.522Z,42.32
2023-05-04T01:40:29.478Z,42.29
2023-05-04T01:41:02.069Z,42.16
2023-05-04T01:41:34.724Z,42.13
2023-05-04T01:42:10.210Z,42.06
2023-05-04T01:42:42.639Z,42.42
2023-05-04T01:43:16.474Z,41.92
2023-05-04T01:43:51.420Z,42.44
2023-05-04T01:44:23.759Z,42.17
2023-05-04T01:44:56.879Z,42.01
2023-05-04T01:45:32.026Z,41.97
2023-05-04T01:46:04.464Z,42.19
2023-05-04T01:46:38.084Z,42.20
2023-05-04T01:47:14.658Z,42.46
2023-05-04T01:47:47.104Z,41.88
2023-05-04T01:48:19.479Z,42.43
2023-05-04T01:48:54.407Z,42.20
2023-05-04T01:49:28.046Z,42.25
2023-05-04T01:50:00.466Z,42.17
2023-05-04T01:50:35.493Z,41.90
2023-05-04T01:51:07.979Z,42.34
2023-05-04T01:51:40.396Z,42.14
2023-05-04T01:52:17.928Z,41.95
2023-05-04T01:52:50.951Z,42.36
2023-05-04T01:53:23.324Z,41.96
2023-05-04T01:53:58.262Z,42.41
2023-05-04T01:54:30.604Z,42.28
2023-05-04T01:55:03.202Z,42.16
2023-05-04T01:55:40.112Z,42.41
2023-05-04T01:56:14.236Z,42.11
2023-05-04T01:56:46.803Z,42.04
2023-05-04T01:57:21.829Z,42.33
2023-05-04T01:57:54.212Z,41.90
2023-05-04T01:58:26.637Z,41.90
2023-05-04T01:59:01.762Z,42.31
2023-05-04T01:59:34.145Z,42.37
2023-05-04T02:00:08.181Z,42.43
2023-05-04T02:00:52.904Z,41.95
2023-05-04T02:01:25.297Z,42.37
2023-05-04T02:01:57.746Z,42.35
2023-05-04T02:02:34.607Z,42.12
2023-05-04T02:03:07.340Z,42.19
2023-05-04T02:03:40.032Z,42.34
2023-05-04T02:04:15.025Z,42.11
2023-05-04T02:04:47.359Z,41.90
2023-05-04T02:05:19.740Z,41.92
2023-05-04T02:05:54.761Z,42.29
2023-05-04T02:06:27.129Z,42.29
2023-05-04T02:06:59.501Z,42.12
2023-05-04T02:07:34.427Z,41.81
2023-05-04T02:08:09.601Z,42.33
2023-05-04T02:08:41.937Z,41.85
2023-05-04T02:09:14.595Z,42.07
2023-05-04T02:09:49.557Z,42.24
2023-05-04T02:10:22.071Z,42.29
2023-05-04T02:10:54.462Z,42.26
2023-05-04T02:11:26.823Z,42.36
2023-05-04T02:12:01.940Z,42.03
2023-05-04T02:12:34.413Z,42.03
2023-05-04T02:13:06.824Z,41.88
2023-05-04T02:13:42.341Z,42.12
2023-05-04T02:14:14.696Z,42.12
2023-05-04T02:14:47.057Z,41.88
2023-05-04T02:15:22.136Z,42.01
2023-05-04T02:15:54.604Z,42.02
2023-05-04T02:16:27.072Z,41.83
2023-05-04T02:17:02.138Z,41.95
2023-05-04T02:17:34.517Z,41.82
2023-05-04T02:18:08.155Z,42.04
2023-05-04T02:18:43.155Z,41.92
2023-05-04T02:19:15.519Z,42.26
2023-05-04T02:19:48.243Z,41.81
2023-05-04T02:20:23.312Z,42.33
2023-05-04T02:20:56.079Z,41.93
2023-05-04T02:21:29.742Z,41.97
2023-05-04T02:22:04.709Z,41.94
2023-05-04T02:22:39.703Z,42.01
2023-05-04T02:23:13.037Z,42.19
2023-05-04T02:23:48.024Z,41.80
2023-05-04T02:24:20.392Z,41.71
2023-05-04T02:24:52.782Z,41.84
2023-05-04T02:25:29.170Z,41.97
2023-05-04T02:26:02.026Z,42.17
2023-05-04T02:26:34.389Z,42.19
2023-05-04T02:27:09.365Z,42.12
2023-05-04T02:27:41.763Z,41.98
2023-05-04T02:28:14.198Z,42.19
2023-05-04T02:28:49.464Z,41.97
2023-05-04T02:29:21.946Z,41.80
2023-05-04T02:29:54.437Z,42.00
2023-05-04T02:30:29.662Z,42.20
2023-05-04T02:31:03.589Z,42.01
2023-05-04T02:31:36.170Z,41.77
2023-05-04T02:32:11.149Z,42.22
2023-05-04T02:32:43.556Z,41.99
2023-05-04T02:33:16.038Z,42.23
2023-05-04T02:33:51.004Z,41.80
2023-05-04T02:34:23.351Z,42.21
2023-05-04T02:34:55.678Z,42.04
2023-05-04T02:35:30.711Z,42.21
2023-05-04T02:36:03.215Z,42.00
2023-05-04T02:36:35.612Z,42.07
2023-05-04T02:37:10.592Z,41.93
2023-05-04T02:37:46.003Z,41.83
2023-05-04T02:38:18.331Z,41.81
2023-05-04T02:38:55.046Z,41.82
2023-05-04T02:39:27.402Z,42.21
2023-05-04T02:40:00.179Z,42.03
2023-05-04T02:40:35.217Z,42.24
2023-05-04T02:41:07.593Z,42.27
2023-05-04T02:41:39.975Z,42.23
2023-05-04T02:42:15.251Z,41.86
2023-05-04T02:42:47.567Z,41.75
2023-05-04T02:43:19.921Z,41.84
2023-05-04T02:43:54.880Z,42.04
2023-05-04T02:44:27.231Z,42.19
2023-05-04T02:44:59.568Z,42.08
2023-05-04T02:45:34.550Z,41.83
2023-05-04T02:46:07.026Z,41.91
2023-05-04T02:46:39.376Z,41.92
2023-05-04T02:47:14.308Z,42.07
2023-05-04T02:47:46.690Z,42.29
2023-05-04T02:48:19.096Z,42.06
2023-05-04T02:48:54.048Z,42.30
2023-05-04T02:49:26.477Z,41.87
2023-05-04T02:49:58.846Z,42.19
2023-05-04T02:50:34.029Z,42.08
2023-05-04T02:51:06.611Z,42.26
2023-05-04T02:51:38.966Z,42.04
2023-05-04T02:52:13.896Z,42.11
2023-05-04T02:52:48.826Z,42.24
2023-05-04T02:53:21.232Z,41.92
2023-05-04T02:53:56.199Z,42.14
2023-05-04T02:54:28.563Z,41.88
2023-05-04T02:55:02.404Z,42.07
2023-05-04T02:55:37.447Z,42.00
2023-05-04T02:56:09.795Z,42.33
2023-05-04T02:56:42.128Z,42.05
2023-05-04T02:57:14.444Z,41.85
2023-05-04T02:57:49.403Z,41.85
2023-05-04T02:58:21.819Z,41.92
2023-05-04T02:58:54.235Z,41.77
2023-05-04T02:59:26.667Z,41.83
2023-05-04T03:00:01.735Z,42.26
2023-05-04T03:00:34.267Z,42.24
2023-05-04T03:01:06.762Z,42.33
2023-05-04T03:01:41.768Z,42.24
2023-05-04T03:02:14.214Z,42.07
2023-05-04T03:02:46.614Z,41.81
2023-05-04T03:03:21.718Z,41.99
2023-05-04T03:03:54.192Z,42.19
2023-05-04T03:04:27.408Z,42.04
2023-05-04T03:05:02.515Z,41.90
2023-05-04T03:05:34.911Z,41.89
2023-05-04T03:06:07.702Z,42.00
2023-05-04T03:06:42.634Z,42.21
2023-05-04T03:07:14.977Z,42.21
2023-05-04T03:07:50.646Z,42.16
2023-05-04T03:08:25.670Z,41.92
2023-05-04T03:08:58.087Z,41.75
2023-05-04T03:09:30.457Z,42.14
2023-05-04T03:10:07.567Z,41.73
2023-05-04T03:10:40.163Z,41.95
2023-05-04T03:11:12.812Z,41.92
2023-05-04T03:11:47.825Z,42.07
2023-05-04T03:12:20.498Z,41.95
2023-05-04T03:12:52.918Z,41.92
2023-05-04T03:13:28.078Z,41.97
2023-05-04T03:14:00.500Z,42.12
2023-05-04T03:14:33.665Z,42.13
2023-05-04T03:15:10.086Z,41.75
2023-05-04T03:15:42.432Z,41.74
2023-05-04T03:16:15.038Z,42.23
2023-05-04T03:16:50.075Z,41.89
2023-05-04T03:17:22.499Z,42.24
2023-05-04T03:17:56.003Z,41.92
2023-05-04T03:18:31.341Z,42.26
2023-05-04T03:19:04.221Z,42.25
2023-05-04T03:19:36.662Z,41.83
2023-05-04T03:20:13.783Z,42.19
2023-05-04T03:20:47.403Z,42.09
2023-05-04T03:21:23.600Z,42.25
2023-05-04T03:21:58.632Z,41.87
2023-05-04T03:22:30.997Z,42.07
2023-05-04T03:23:06.252Z,42.07
2023-05-04T03:23:38.603Z,42.12
2023-05-04T03:24:13.977Z,42.09
2023-05-04T03:24:46.403Z,42.16
2023-05-04T03:25:19.081Z,42.04
2023-05-04T03:25:51.570Z,41.87
2023-05-04T03:26:26.848Z,42.07
2023-05-04T03:26:59.299Z,41.89
2023-05-04T03:27:31.718Z,42.24
2023-05-04T03:28:07.097Z,42.24
2023-05-04T03:28:39.454Z,41.80
2023-05-04T03:29:12.224Z,42.00
2023-05-04T03:29:48.331Z,42.12
2023-05-04T03:30:20.876Z,41.87
2023-05-04T03:30:53.240Z,41.97
2023-05-04T03:31:29.437Z,42.00
2023-05-04T03:32:02.021Z,42.19
2023-05-04T03:32:34.678Z,42.22
2023-05-04T03:33:09.853Z,41.88
2023-05-04T03:33:42.322Z,41.79
2023-05-04T03:34:15.184Z,42.15
2023-05-04T03:34:50.287Z,41.83
2023-05-04T03:35:24.902Z,41.81
2023-05-04T03:35:59.564Z,42.01
2023-05-04T03:36:34.562Z,41.73
2023-05-04T03:37:08.248Z,42.13
2023-05-04T03:37:40.909Z,41.75
2023-05-04T03:38:18.434Z,41.71
2023-05-04T03:38:51.548Z,41.87
2023-05-04T03:39:24.596Z,42.05
2023-05-04T03:39:56.940Z,42.09
2023-05-04T03:40:32.072Z,41.96
2023-05-04T03:41:04.398Z,41.90
2023-05-04T03:41:36.836Z,42.14
2023-05-04T03:42:12.213Z,41.85
2023-05-04T03:42:44.640Z,41.69
2023-05-04T03:43:16.996Z,41.91
2023-05-04T03:43:52.097Z,41.82
2023-05-04T03:44:25.183Z,41.71
2023-05-04T03:44:57.812Z,42.14
2023-05-04T03:45:32.956Z,42.21
2023-05-04T03:46:05.881Z,41.95
2023-05-04T03:46:38.348Z,41.78
2023-05-04T03:47:13.782Z,42.12
2023-05-04T03:47:46.313Z,41.99
2023-05-04T03:48:18.826Z,41.95
2023-05-04T03:48:53.843Z,41.75
2023-05-04T03:49:26.390Z,41.98
2023-05-04T03:49:58.750Z,41.97
2023-05-04T03:50:34.767Z,41.90
2023-05-04T03:51:07.279Z,42.01
2023-05-04T03:51:39.654Z,41.98
2023-05-04T03:52:16.209Z,41.72
2023-05-04T03:52:49.822Z,41.83
2023-05-04T03:53:27.364Z,42.13
2023-05-04T03:54:02.335Z,41.65
2023-05-04T03:54:34.699Z,42.07
2023-05-04T03:55:08.344Z,42.04
2023-05-04T03:55:43.300Z,41.90
2023-05-04T03:56:15.828Z,41.86
2023-05-04T03:56:48.170Z,41.63
2023-05-04T03:57:25.436Z,42.12
2023-05-04T03:57:59.897Z,41.66
2023-05-04T03:58:33.113Z,42.17
2023-05-04T03:59:11.210Z,41.90
2023-05-04T03:59:43.638Z,41.66
2023-05-04T04:00:17.562Z,41.70
2023-05-04T04:01:01.427Z,41.74
2023-05-04T04:01:33.824Z,41.85
2023-05-04T04:02:06.224Z,42.17
2023-05-04T04:02:41.377Z,41.93
2023-05-04T04:03:21.450Z,42.20
2023-05-04T04:03:54.137Z,41.85
2023-05-04T04:04:29.348Z,41.86
2023-05-04T04:05:03.191Z,41.59
2023-05-04T04:05:35.591Z,41.83
2023-05-04T04:06:13.531Z,42.00
2023-05-04T04:06:46.753Z,41.80
2023-05-04T04:07:19.291Z,41.81
2023-05-04T04:07:54.241Z,41.75
2023-05-04T04:08:29.284Z,42.13
2023-05-04T04:09:01.616Z,41.88
2023-05-04T04:09:38.588Z,41.97
2023-05-04T04:10:11.433Z,42.09
2023-05-04T04:10:43.822Z,41.87
2023-05-04T04:11:18.752Z,42.17
2023-05-04T04:11:51.086Z,41.94
2023-05-04T04:12:23.465Z,42.13
2023-05-04T04:12:58.469Z,41.92
2023-05-04T04:13:30.879Z,41.56
2023-05-04T04:14:03.289Z,42.12
2023-05-04T04:14:38.229Z,41.83
2023-05-04T04:15:11.560Z,41.90
2023-05-04T04:15:47.060Z,42.07
2023-05-04T04:16:20.783Z,42.14
2023-05-04T04:16:53.189Z,42.12
2023-05-04T04:17:28.247Z,41.92
2023-05-04T04:18:00.693Z,41.74
2023-05-04T04:18:33.257Z,42.05
2023-05-04T04:19:08.242Z,41.66
2023-05-04T04:19:40.762Z,42.09
2023-05-04T04:20:14.162Z,41.90
2023-05-04T04:20:49.342Z,42.09
2023-05-04T04:21:21.675Z,41.62
2023-05-04T04:21:54.000Z,41.67
2023-05-04T04:22:29.284Z,41.82
2023-05-04T04:23:01.698Z,41.61
2023-05-04T04:23:36.716Z,41.86
2023-05-04T04:24:11.663Z,42.07
2023-05-04T04:24:43.984Z,41.86
2023-05-04T04:25:16.368Z,41.95
2023-05-04T04:25:51.448Z,41.53
2023-05-04T04:26:23.793Z,41.83
2023-05-04T04:26:56.251Z,41.66
2023-05-04T04:27:31.181Z,41.79
2023-05-04T04:28:03.893Z,41.80
2023-05-04T04:28:36.375Z,42.00
2023-05-04T04:29:12.420Z,41.92
2023-05-04T04:29:44.774Z,41.58
2023-05-04T04:30:17.374Z,42.07
2023-05-04T04:30:52.339Z,41.89
2023-05-04T04:31:24.714Z,41.63
2023-05-04T04:31:57.072Z,41.64
2023-05-04T04:32:32.342Z,41.97
2023-05-04T04:33:05.181Z,41.95
2023-05-04T04:33:37.548Z,41.82
2023-05-04T04:34:12.494Z,41.86
2023-05-04T04:34:45.173Z,41.91
2023-05-04T04:35:17.514Z,41.86
2023-05-04T04:35:53.335Z,41.86
2023-05-04T04:36:25.981Z,42.07
2023-05-04T04:36:59.048Z,42.18
2023-05-04T04:37:34.034Z,42.14
2023-05-04T04:38:07.200Z,41.70
2023-05-04T04:38:42.144Z,41.93
2023-05-04T04:39:17.267Z,41.95
2023-05-04T04:39:49.820Z,41.77
2023-05-04T04:40:22.773Z,41.66
2023-05-04T04:40:57.763Z,42.09
2023-05-04T04:41:30.105Z,41.80
2023-05-04T04:42:03.028Z,42.12
2023-05-04T04:42:37.985Z,41.73
2023-05-04T04:43:11.419Z,42.12
2023-05-04T04:43:43.899Z,41.86
2023-05-04T04:44:18.824Z,42.07
2023-05-04T04:44:52.502Z,42.07
2023-05-04T04:45:25.051Z,41.66
2023-05-04T04:45:59.990Z,42.06
2023-05-04T04:46:32.508Z,41.90
2023-05-04T04:47:04.927Z,41.71
2023-05-04T04:47:37.849Z,42.04
2023-05-04T04:48:13.053Z,41.84
2023-05-04T04:48:45.416Z,41.68
2023-05-04T04:49:18.117Z,41.80
2023-05-04T04:49:53.106Z,41.81
2023-05-04T04:50:25.487Z,42.10
2023-05-04T04:50:57.821Z,41.90
2023-05-04T04:51:32.893Z,41.89
2023-05-04T04:52:06.149Z,41.89
2023-05-04T04:52:38.652Z,41.88
2023-05-04T04:53:14.415Z,42.09
2023-05-04T04:53:49.372Z,41.67
2023-05-04T04:54:21.731Z,41.88
2023-05-04T04:54:56.964Z,42.08
2023-05-04T04:55:29.398Z,41.67
2023-05-04T04:56:04.318Z,41.85
2023-05-04T04:56:37.904Z,41.83
2023-05-04T04:57:10.533Z,41.87
2023-05-04T04:57:45.502Z,41.90
2023-05-04T04:58:17.818Z,42.10
2023-05-04T04:58:51.084Z,41.90
2023-05-04T04:59:26.535Z,42.12
2023-05-04T04:59:58.903Z,41.84
2023-05-04T05:00:31.235Z,41.68
2023-05-04T05:01:08.400Z,42.07
2023-05-04T05:01:42.951Z,41.73
2023-05-04T05:02:15.390Z,42.06
2023-05-04T05:02:50.462Z,42.09
2023-05-04T05:03:22.860Z,41.70
2023-05-04T05:03:55.184Z,41.82
2023-05-04T05:04:30.140Z,42.11
2023-05-04T05:05:02.676Z,42.01
2023-05-04T05:05:35.112Z,41.80
2023-05-04T05:06:10.865Z,41.79
2023-05-04T05:06:43.710Z,42.18
2023-05-04T05:07:16.715Z,42.28
2023-05-04T05:07:51.672Z,42.20
2023-05-04T05:08:24.132Z,42.19
2023-05-04T05:08:59.102Z,42.44
2023-05-04T05:09:34.039Z,41.92
2023-05-04T05:10:08.738Z,42.38
2023-05-04T05:10:44.209Z,41.89
2023-05-04T05:11:16.757Z,42.43
2023-05-04T05:11:49.090Z,42.33
2023-05-04T05:12:24.051Z,42.16
2023-05-04T05:12:56.465Z,42.30
2023-05-04T05:13:28.829Z,42.38
2023-05-04T05:14:03.755Z,42.28
2023-05-04T05:14:36.181Z,42.26
2023-05-04T05:15:09.752Z,42.17
2023-05-04T05:15:44.733Z,42.15
2023-05-04T05:16:17.109Z,42.12
2023-05-04T05:16:49.583Z,42.06
2023-05-04T05:17:24.715Z,42.50
2023-05-04T05:17:57.271Z,42.35
2023-05-04T05:18:32.452Z,42.51
2023-05-04T05:19:04.849Z,42.54
2023-05-04T05:19:37.494Z,42.11
2023-05-04T05:20:14.159Z,42.58
2023-05-04T05:20:46.487Z,42.57
2023-05-04T05:21:22.168Z,42.59
2023-05-04T05:21:54.489Z,42.36
2023-05-04T05:22:26.843Z,43.04
2023-05-04T05:23:01.858Z,43.69
2023-05-04T05:23:34.217Z,43.69
2023-05-04T05:24:09.309Z,43.51
2023-05-04T05:24:44.275Z,43.95
2023-05-04T05:25:16.686Z,43.97
2023-05-04T05:25:49.040Z,44.28
2023-05-04T05:26:24.995Z,44.59
2023-05-04T05:26:58.282Z,44.65
2023-05-04T05:27:30.659Z,44.72
2023-05-04T05:28:05.725Z,44.65
2023-05-04T05:28:38.179Z,44.70
2023-05-04T05:29:10.494Z,44.47
2023-05-04T05:29:45.822Z,44.20
2023-05-04T05:30:18.396Z,44.35
2023-05-04T05:30:52.540Z,44.36
2023-05-04T05:31:27.876Z,44.50
2023-05-04T05:32:00.289Z,44.05
2023-05-04T05:32:32.844Z,44.45
2023-05-04T05:33:07.953Z,44.06
2023-05-04T05:33:41.191Z,44.27
2023-05-04T05:34:13.539Z,43.93
2023-05-04T05:34:48.576Z,44.12
2023-05-04T05:35:21.299Z,44.24
2023-05-04T05:35:54.276Z,44.24
2023-05-04T05:36:29.268Z,43.95
2023-05-04T05:37:01.672Z,44.29
2023-05-04T05:37:34.133Z,43.87
2023-05-04T05:38:09.096Z,44.04
2023-05-04T05:38:41.440Z,44.24
2023-05-04T05:39:16.472Z,43.78
2023-05-04T05:39:51.433Z,43.76
2023-05-04T05:40:23.849Z,43.79
2023-05-04T05:40:56.375Z,44.24
2023-05-04T05:41:31.324Z,44.09
2023-05-04T05:42:03.928Z,44.22
2023-05-04T05:42:36.309Z,44.14
2023-05-04T05:43:11.394Z,43.83
2023-05-04T05:43:43.728Z,43.90
2023-05-04T05:44:16.058Z,44.06
2023-05-04T05:44:51.281Z,43.97
2023-05-04T05:45:23.621Z,43.66
2023-05-04T05:45:56.477Z,43.90
2023-05-04T05:46:31.567Z,43.64
2023-05-04T05:47:03.999Z,44.12
2023-05-04T05:47:37.018Z,44.00
2023-05-04T05:48:12.064Z,43.88
2023-05-04T05:48:44.484Z,43.77
2023-05-04T05:49:16.857Z,44.05
2023-05-04T05:49:51.788Z,43.81
2023-05-04T05:50:24.732Z,43.81
2023-05-04T05:50:57.070Z,43.79
2023-05-04T05:51:31.992Z,43.82
2023-05-04T05:52:04.769Z,44.00
2023-05-04T05:52:37.081Z,43.54
2023-05-04T05:53:12.016Z,43.76
2023-05-04T05:53:45.129Z,43.57
2023-05-04T05:54:23.528Z,44.00
2023-05-04T05:54:55.949Z,44.00
2023-05-04T05:55:30.883Z,43.76
2023-05-04T05:56:03.262Z,43.50
2023-05-04T05:56:35.721Z,43.45
2023-05-04T05:57:10.639Z,43.40
2023-05-04T05:57:42.985Z,43.85
2023-05-04T05:58:18.079Z,43.35
2023-05-04T05:58:51.636Z,43.81
2023-05-04T05:59:24.094Z,43.35
2023-05-04T05:59:59.602Z,43.20
2023-05-04T06:00:31.980Z,43.25
2023-05-04T06:01:04.317Z,43.28
2023-05-04T06:01:39.279Z,43.37
2023-05-04T06:02:14.887Z,43.21
2023-05-04T06:02:47.415Z,43.64
2023-05-04T06:03:22.762Z,43.73
2023-05-04T06:03:55.470Z,43.44
2023-05-04T06:04:30.623Z,43.36
2023-05-04T06:05:03.175Z,43.65
2023-05-04T06:05:38.337Z,43.26
2023-05-04T06:06:10.865Z,43.41
2023-05-04T06:06:45.147Z,43.28
2023-05-04T06:07:22.172Z,43.25
2023-05-04T06:07:54.505Z,43.34
2023-05-04T06:08:29.516Z,43.12
2023-05-04T06:09:01.861Z,43.12
2023-05-04T06:09:36.955Z,43.45
2023-05-04T06:10:12.568Z,43.54
2023-05-04T06:10:44.965Z,43.37
2023-05-04T06:11:19.987Z,43.18
2023-05-04T06:11:54.742Z,43.12
2023-05-04T06:12:30.504Z,43.13
2023-05-04T06:13:02.908Z,43.11
2023-05-04T06:13:37.857Z,43.47
2023-05-04T06:14:10.188Z,43.01
2023-05-04T06:14:42.530Z,43.09
2023-05-04T06:15:17.826Z,43.48
2023-05-04T06:15:53.169Z,43.02
2023-05-04T06:16:28.299Z,43.34
2023-05-04T06:17:00.656Z,43.04
2023-05-04T06:17:35.608Z,43.10
2023-05-04T06:18:08.070Z,43.45
2023-05-04T06:18:43.071Z,43.20
2023-05-04T06:19:15.435Z,43.30
2023-05-04T06:20:02.392Z,43.57
2023-05-04T06:20:37.734Z,43.30
2023-05-04T06:21:10.317Z,43.37
2023-05-04T06:21:42.647Z,43.32
2023-05-04T06:22:17.626Z,43.36
2023-05-04T06:22:49.978Z,43.57
2023-05-04T06:23:25.822Z,43.25
2023-05-04T06:23:58.151Z,43.55
2023-05-04T06:24:33.111Z,43.71
2023-05-04T06:25:08.891Z,43.24
2023-05-04T06:25:41.327Z,43.62
2023-05-04T06:26:16.275Z,43.54
2023-05-04T06:26:48.685Z,43.53
2023-05-04T06:27:22.349Z,43.11
2023-05-04T06:27:59.077Z,43.59
2023-05-04T06:28:31.422Z,43.18
2023-05-04T06:29:03.786Z,43.37
2023-05-04T06:29:40.532Z,43.25
2023-05-04T06:30:14.228Z,43.13
2023-05-04T06:30:49.200Z,43.59
2023-05-04T06:31:21.599Z,43.42
2023-05-04T06:31:54.158Z,43.17
2023-05-04T06:32:29.220Z,43.65
2023-05-04T06:33:01.830Z,43.29
2023-05-04T06:33:34.374Z,43.21
2023-05-04T06:34:09.349Z,43.32
2023-05-04T06:34:41.685Z,43.45
2023-05-04T06:35:14.242Z,43.20
2023-05-04T06:35:49.251Z,43.20
2023-05-04T06:36:22.039Z,43.32
2023-05-04T06:36:54.369Z,43.27
2023-05-04T06:37:29.428Z,43.55
2023-05-04T06:38:01.893Z,43.72
2023-05-04T06:38:38.847Z,43.34
2023-05-04T06:39:11.883Z,43.73
2023-05-04T06:39:44.219Z,43.78
2023-05-04T06:40:21.974Z,43.40
2023-05-04T06:40:54.404Z,43.67
2023-05-04T06:41:29.464Z,43.59
2023-05-04T06:42:01.875Z,43.61
2023-05-04T06:42:39.962Z,43.48
2023-05-04T06:43:14.890Z,43.95
2023-05-04T06:43:47.232Z,43.64
2023-05-04T06:44:19.566Z,43.70
2023-05-04T06:44:54.515Z,43.69
2023-05-04T06:45:26.887Z,43.95
2023-05-04T06:46:04.718Z,43.92
2023-05-04T06:46:37.573Z,43.78
2023-05-04T06:47:09.918Z,44.08
2023-05-04T06:47:44.918Z,43.47
2023-05-04T06:48:18.609Z,43.52
2023-05-04T06:48:50.959Z,43.70
2023-05-04T06:49:25.928Z,43.68
2023-05-04T06:49:58.508Z,43.53
2023-05-04T06:50:33.850Z,43.97
2023-05-04T06:51:06.781Z,43.97
2023-05-04T06:51:39.708Z,43.59
2023-05-04T06:52:14.690Z,44.01
2023-05-04T06:52:47.208Z,43.51
2023-05-04T06:53:19.539Z,43.46
2023-05-04T06:53:54.777Z,43.78
2023-05-04T06:54:27.746Z,43.57
2023-05-04T06:55:02.854Z,43.94
2023-05-04T06:55:38.284Z,43.66
2023-05-04T06:56:13.242Z,43.81
2023-05-04T06:56:45.630Z,43.50
2023-05-04T06:57:17.970Z,43.64
2023-05-04T06:57:54.244Z,43.45
2023-05-04T06:58:26.753Z,43.90
2023-05-04T06:58:59.139Z,43.77
2023-05-04T06:59:34.065Z,43.90
2023-05-04T07:00:08.735Z,43.85
2023-05-04T07:00:45.041Z,43.90
2023-05-04T07:01:18.505Z,43.45
2023-05-04T07:01:51.266Z,43.45
2023-05-04T07:02:26.362Z,43.70
2023-05-04T07:02:58.826Z,43.49
2023-05-04T07:03:31.225Z,43.93
2023-05-04T07:04:06.843Z,43.48
2023-05-04T07:04:39.351Z,43.45
2023-05-04T07:05:11.713Z,43.48
2023-05-04T07:05:48.904Z,43.90
2023-05-04T07:06:21.415Z,43.67
2023-05-04T07:06:53.931Z,43.94
2023-05-04T07:07:28.862Z,43.45
2023-05-04T07:08:01.400Z,43.76
2023-05-04T07:08:36.374Z,43.73
2023-05-04T07:09:08.909Z,43.47
2023-05-04T07:09:41.927Z,43.67
2023-05-04T07:10:16.979Z,43.75
2023-05-04T07:10:52.020Z,43.80
2023-05-04T07:11:25.083Z,43.47
2023-05-04T07:12:00.034Z,43.70
2023-05-04T07:12:32.478Z,43.52
2023-05-04T07:13:04.879Z,43.66
2023-05-04T07:13:39.920Z,43.81
2023-05-04T07:14:12.380Z,43.83
2023-05-04T07:14:44.723Z,43.95
2023-05-04T07:15:19.685Z,44.00
2023-05-04T07:15:52.227Z,43.74
2023-05-04T07:16:27.238Z,43.77